createdAt,value
2023-02-15T00:01:43.785Z,102803.31
2023-02-15T00:04:10.925Z,102793.06
2023-02-15T00:06:37.470Z,102794.13
2023-02-15T00:09:04.353Z,102800.22
2023-02-15T00:11:49.453Z,102799.66
2023-02-15T00:14:21.156Z,102799.34
2023-02-15T00:16:48.674Z,102803.88
2023-02-15T00:19:17.036Z,102795.94
2023-02-15T00:21:43.544Z,102787.69
2023-02-15T00:24:11.943Z,102804.94
2023-02-15T00:26:42.588Z,102803.69
2023-02-15T00:29:09.854Z,102795.44
2023-02-15T00:31:36.650Z,102795.94
2023-02-15T00:34:13.626Z,102802.50
2023-02-15T00:36:40.386Z,102803.13
2023-02-15T00:39:06.957Z,102787.88
2023-02-15T00:41:34.010Z,102784.78
2023-02-15T00:44:00.528Z,102784.78
2023-02-15T00:46:27.004Z,102786.69
2023-02-15T00:48:53.430Z,102775.97
2023-02-15T00:51:21.244Z,102766.81
2023-02-15T00:53:47.784Z,102771.47
2023-02-15T00:56:14.230Z,102766.81
2023-02-15T00:58:40.669Z,102762.91
2023-02-15T01:01:10.017Z,102769.56
2023-02-15T01:03:36.661Z,102763.31
2023-02-15T01:06:04.367Z,102756.03
2023-02-15T01:08:31.131Z,102759.13
2023-02-15T01:10:57.531Z,102762.03
2023-02-15T01:13:24.113Z,102760.78
2023-02-15T01:15:55.675Z,102753.56
2023-02-15T01:18:22.952Z,102760.22
2023-02-15T01:20:50.383Z,102756.94
2023-02-15T01:23:16.956Z,102758.75
2023-02-15T01:25:43.502Z,102751.78
2023-02-15T01:28:09.931Z,102757.44
2023-02-15T01:30:36.429Z,102750.63
2023-02-15T01:33:03.234Z,102750.63
2023-02-15T01:35:29.770Z,102736.97
2023-02-15T01:37:56.864Z,102742.13
2023-02-15T01:40:24.124Z,102739.91
2023-02-15T01:42:54.773Z,102741.06
2023-02-15T01:45:23.423Z,102731.00
2023-02-15T01:47:54.476Z,102724.38
2023-02-15T01:50:29.577Z,102723.97
2023-02-15T01:53:04.960Z,102720.75
2023-02-15T01:55:38.237Z,102729.75
2023-02-15T01:58:05.064Z,102728.34
2023-02-15T02:00:31.706Z,102723.41
2023-02-15T02:02:58.552Z,102722.81
2023-02-15T02:05:26.050Z,102716.69
2023-02-15T02:07:53.616Z,102715.66
2023-02-15T02:10:23.939Z,102713.03
2023-02-15T02:12:52.513Z,102713.50
2023-02-15T02:15:19.980Z,102712.28
2023-02-15T02:17:56.210Z,102717.28
2023-02-15T02:20:31.900Z,102718.06
2023-02-15T02:23:08.269Z,102712.91
2023-02-15T02:25:52.743Z,102707.63
2023-02-15T02:28:56.253Z,102697.69
2023-02-15T02:31:42.285Z,102697.63
2023-02-15T02:34:20.973Z,102691.00
2023-02-15T02:36:56.220Z,102691.34
2023-02-15T02:39:38.953Z,102691.22
2023-02-15T02:42:13.876Z,102691.06
2023-02-15T02:44:44.612Z,102697.59
2023-02-15T02:47:19.426Z,102685.31
2023-02-15T02:49:46.488Z,102677.41
2023-02-15T02:52:42.421Z,102683.16
2023-02-15T02:55:11.763Z,102675.06
2023-02-15T02:57:44.281Z,102682.81
2023-02-15T03:00:11.344Z,102682.38
2023-02-15T03:02:41.336Z,102679.75
2023-02-15T03:05:10.380Z,102673.69
2023-02-15T03:07:37.349Z,102674.19
2023-02-15T03:10:06.208Z,102675.28
2023-02-15T03:12:35.363Z,102672.59
2023-02-15T03:15:04.732Z,102674.28
2023-02-15T03:17:34.958Z,102663.63
2023-02-15T03:20:08.015Z,102660.06
2023-02-15T03:22:41.712Z,102661.75
2023-02-15T03:25:12.353Z,102660.66
2023-02-15T03:27:45.036Z,102662.38
2023-02-15T03:30:13.417Z,102655.38
2023-02-15T03:32:40.458Z,102655.38
2023-02-15T03:35:07.981Z,102644.84
2023-02-15T03:37:44.010Z,102654.34
2023-02-15T03:40:42.840Z,102650.00
2023-02-15T03:43:18.973Z,102659.31
2023-02-15T03:45:55.969Z,102654.47
2023-02-15T03:48:25.827Z,102658.25
2023-02-15T03:51:13.376Z,102658.06
2023-02-15T03:53:40.191Z,102662.41
2023-02-15T03:56:06.600Z,102659.97
2023-02-15T03:58:51.720Z,102646.75
2023-02-15T04:01:46.951Z,102650.94
2023-02-15T04:04:20.738Z,102661.50
2023-02-15T04:06:47.321Z,102659.16
2023-02-15T04:09:32.374Z,102659.16
2023-02-15T04:11:58.821Z,102651.44
2023-02-15T04:14:43.767Z,102649.41
2023-02-15T04:17:10.470Z,102646.75
2023-02-15T04:19:55.576Z,102642.09
2023-02-15T04:22:40.875Z,102633.72
2023-02-15T04:25:10.202Z,102634.78
2023-02-15T04:27:37.191Z,102634.03
2023-02-15T04:30:04.992Z,102623.50
2023-02-15T04:32:31.441Z,102632.81
2023-02-15T04:34:57.861Z,102630.97
2023-02-15T04:37:24.281Z,102628.94
2023-02-15T04:39:50.958Z,102626.31
2023-02-15T04:42:17.487Z,102625.06
2023-02-15T04:44:43.940Z,102622.09
2023-02-15T04:47:10.390Z,102621.16
2023-02-15T04:49:36.808Z,102620.56
2023-02-15T04:52:03.233Z,102612.63
2023-02-15T04:54:29.649Z,102616.81
2023-02-15T04:56:56.088Z,102611.88
2023-02-15T04:59:22.797Z,102612.03
2023-02-15T05:01:49.357Z,102607.34
2023-02-15T05:04:15.812Z,102604.88
2023-02-15T05:06:42.535Z,102608.31
2023-02-15T05:09:08.988Z,102605.06
2023-02-15T05:11:35.445Z,102607.72
2023-02-15T05:14:01.841Z,102605.50
2023-02-15T05:16:28.880Z,102598.69
2023-02-15T05:18:55.314Z,102594.19
2023-02-15T05:21:21.838Z,102588.00
2023-02-15T05:23:48.274Z,102593.25
2023-02-15T05:26:37.413Z,102604.09
2023-02-15T05:29:04.245Z,102591.97
2023-02-15T05:31:31.749Z,102600.38
2023-02-15T05:33:58.716Z,102590.59
2023-02-15T05:36:25.188Z,102602.69
2023-02-15T05:38:51.643Z,102595.59
2023-02-15T05:41:18.187Z,102599.94
2023-02-15T05:43:44.678Z,102593.72
2023-02-15T05:46:11.659Z,102587.03
2023-02-15T05:48:38.147Z,102567.69
2023-02-15T05:51:06.917Z,102572.66
2023-02-15T05:53:35.462Z,102575.25
2023-02-15T05:56:03.550Z,102571.84
2023-02-15T05:58:41.095Z,102574.97
2023-02-15T06:01:14.967Z,102574.66
2023-02-15T06:03:41.975Z,102573.75
2023-02-15T06:06:08.982Z,102571.25
2023-02-15T06:08:36.912Z,102565.03
2023-02-15T06:11:03.739Z,102553.72
2023-02-15T06:13:30.514Z,102565.81
2023-02-15T06:15:56.974Z,102567.22
2023-02-15T06:18:23.823Z,102568.13
2023-02-15T06:20:50.424Z,102568.44
2023-02-15T06:23:17.264Z,102567.66
2023-02-15T06:25:44.458Z,102561.50
2023-02-15T06:28:11.151Z,102566.56
2023-02-15T06:30:37.718Z,102550.31
2023-02-15T06:33:04.247Z,102556.63
2023-02-15T06:35:30.784Z,102556.81
2023-02-15T06:37:57.369Z,102556.34
2023-02-15T06:40:23.910Z,102564.25
2023-02-15T06:42:50.470Z,102561.31
2023-02-15T06:45:16.895Z,102568.59
2023-02-15T06:47:43.443Z,102573.09
2023-02-15T06:50:10.441Z,102566.91
2023-02-15T06:52:36.931Z,102564.72
2023-02-15T06:55:03.877Z,102560.84
2023-02-15T06:57:30.448Z,102569.53
2023-02-15T06:59:57.919Z,102563.63
2023-02-15T07:02:24.434Z,102562.09
2023-02-15T07:04:50.857Z,102573.72
2023-02-15T07:07:17.267Z,102569.03
2023-02-15T07:09:43.783Z,102561.78
2023-02-15T07:12:29.184Z,102563.94
2023-02-15T07:14:55.612Z,102551.84
2023-02-15T07:17:36.465Z,102544.88
2023-02-15T07:20:08.807Z,102553.88
2023-02-15T07:22:37.136Z,102556.34
2023-02-15T07:25:08.236Z,102562.41
2023-02-15T07:27:34.751Z,102555.88
2023-02-15T07:30:01.772Z,102553.72
2023-02-15T07:32:30.507Z,102545.94
2023-02-15T07:34:57.026Z,102534.16
2023-02-15T07:37:23.597Z,102540.97
2023-02-15T07:39:50.052Z,102525.00
2023-02-15T07:42:16.693Z,102527.78
2023-02-15T07:44:43.103Z,102538.63
2023-02-15T07:47:09.532Z,102532.84
2023-02-15T07:49:35.947Z,102528.53
2023-02-15T07:52:02.737Z,102522.31
2023-02-15T07:54:29.236Z,102524.03
2023-02-15T07:56:55.723Z,102521.50
2023-02-15T07:59:22.165Z,102523.97
2023-02-15T08:01:48.650Z,102519.13
2023-02-15T08:04:15.128Z,102514.75
2023-02-15T08:06:41.694Z,102513.47
2023-02-15T08:09:09.754Z,102516.75
2023-02-15T08:11:37.809Z,102518.59
2023-02-15T08:14:05.807Z,102512.78
2023-02-15T08:16:37.979Z,102519.59
2023-02-15T08:19:17.337Z,102515.53
2023-02-15T08:21:49.171Z,102512.19
2023-02-15T08:24:17.713Z,102514.56
2023-02-15T08:26:45.944Z,102518.19
2023-02-15T08:29:12.412Z,102512.00
2023-02-15T08:31:39.535Z,102513.44
2023-02-15T08:34:06.459Z,102521.22
2023-02-15T08:36:32.951Z,102518.84
2023-02-15T08:39:00.674Z,102519.88
2023-02-15T08:41:32.449Z,102514.03
2023-02-15T08:44:00.644Z,102518.94
2023-02-15T08:46:28.996Z,102513.63
2023-02-15T08:48:55.668Z,102507.94
2023-02-15T08:51:24.331Z,102511.50
2023-02-15T08:53:52.962Z,102512.53
2023-02-15T08:56:21.578Z,102509.09
2023-02-15T08:58:48.063Z,102509.66
2023-02-15T09:01:21.017Z,102502.25
2023-02-15T09:03:54.391Z,102512.41
2023-02-15T09:06:21.456Z,102500.97
2023-02-15T09:08:47.879Z,102509.25
2023-02-15T09:11:23.764Z,102501.94
2023-02-15T09:14:01.263Z,102504.25
2023-02-15T09:16:30.147Z,102496.53
2023-02-15T09:18:58.531Z,102489.91
2023-02-15T09:21:26.339Z,102490.09
2023-02-15T09:23:58.224Z,102488.75
2023-02-15T09:26:25.579Z,102490.81
2023-02-15T09:28:54.388Z,102491.31
2023-02-15T09:31:23.142Z,102483.72
2023-02-15T09:33:50.539Z,102486.66
2023-02-15T09:36:28.492Z,102495.09
2023-02-15T09:38:59.389Z,102489.19
2023-02-15T09:41:37.948Z,102488.84
2023-02-15T09:44:35.757Z,102497.78
2023-02-15T09:47:31.453Z,102502.81
2023-02-15T09:50:26.890Z,102491.00
2023-02-15T09:53:28.502Z,102493.03
2023-02-15T09:56:17.258Z,102493.50
2023-02-15T09:58:53.656Z,102490.25
2023-02-15T10:01:48.109Z,102494.31
2023-02-15T10:04:31.261Z,102500.06
2023-02-15T10:07:07.467Z,102487.91
2023-02-15T10:09:52.290Z,102490.56
2023-02-15T10:12:32.362Z,102506.75
2023-02-15T10:15:08.104Z,102500.56
2023-02-15T10:17:54.738Z,102489.44
2023-02-15T10:20:28.077Z,102486.59
2023-02-15T10:23:25.587Z,102488.34
2023-02-15T10:26:37.060Z,102487.59
2023-02-15T10:29:17.784Z,102484.44
2023-02-15T10:32:13.820Z,102484.22
2023-02-15T10:34:57.381Z,102485.19
2023-02-15T10:37:42.455Z,102485.28
2023-02-15T10:40:11.941Z,102493.78
2023-02-15T10:43:05.356Z,102484.03
2023-02-15T10:45:57.866Z,102489.06
2023-02-15T10:48:36.135Z,102490.31
2023-02-15T10:51:05.157Z,102487.84
2023-02-15T10:53:56.532Z,102474.44
2023-02-15T10:56:31.823Z,102481.03
2023-02-15T10:59:18.396Z,102482.38
2023-02-15T11:01:49.623Z,102480.91
2023-02-15T11:04:25.143Z,102482.56
2023-02-15T11:06:57.479Z,102478.03
2023-02-15T11:09:26.986Z,102480.31
2023-02-15T11:11:55.197Z,102473.59
2023-02-15T11:14:33.003Z,102472.81
2023-02-15T11:17:04.174Z,102467.44
2023-02-15T11:19:37.025Z,102463.97
2023-02-15T11:22:05.785Z,102467.09
2023-02-15T11:24:38.453Z,102465.22
2023-02-15T11:27:13.939Z,102463.00
2023-02-15T11:29:53.707Z,102455.78
2023-02-15T11:32:29.429Z,102456.25
2023-02-15T11:35:05.803Z,102445.13
2023-02-15T11:37:36.871Z,102444.06
2023-02-15T11:40:05.007Z,102440.63
2023-02-15T11:42:32.731Z,102434.94
2023-02-15T11:45:20.750Z,102430.44
2023-02-15T11:47:47.169Z,102431.94
2023-02-15T11:50:23.073Z,102433.84
2023-02-15T11:52:53.920Z,102428.13
2023-02-15T11:55:23.787Z,102426.59
2023-02-15T11:57:56.693Z,102417.44
2023-02-15T12:00:37.053Z,102427.38
2023-02-15T12:03:10.908Z,102406.75
2023-02-15T12:05:38.975Z,102410.56
2023-02-15T12:08:13.440Z,102400.63
2023-02-15T12:10:48.909Z,102401.03
2023-02-15T12:13:18.630Z,102396.78
2023-02-15T12:15:47.739Z,102399.47
2023-02-15T12:18:40.064Z,102396.06
2023-02-15T12:21:12.781Z,102390.69
2023-02-15T12:23:50.069Z,102393.34
2023-02-15T12:26:25.154Z,102386.84
2023-02-15T12:28:53.261Z,102387.97
2023-02-15T12:31:26.125Z,102379.16
2023-02-15T12:33:55.142Z,102375.72
2023-02-15T12:36:33.694Z,102373.44
2023-02-15T12:39:12.592Z,102366.16
2023-02-15T12:41:46.194Z,102369.16
2023-02-15T12:44:21.961Z,102359.94
2023-02-15T12:46:58.100Z,102358.78
2023-02-15T12:49:25.147Z,102352.59
2023-02-15T12:52:03.619Z,102350.66
2023-02-15T12:54:35.619Z,102352.19
2023-02-15T12:57:14.450Z,102351.66
2023-02-15T13:00:19.735Z,102352.78
2023-02-15T13:02:49.793Z,102351.06
2023-02-15T13:05:36.712Z,102360.56
2023-02-15T13:08:11.350Z,102342.50
2023-02-15T13:11:01.419Z,102357.47
2023-02-15T13:13:30.676Z,102343.28
2023-02-15T13:16:04.046Z,102343.34
2023-02-15T13:18:40.206Z,102341.75
2023-02-15T13:21:19.770Z,102350.09
2023-02-15T13:23:52.883Z,102336.69
2023-02-15T13:26:21.701Z,102337.03
2023-02-15T13:28:51.867Z,102334.47
2023-02-15T13:31:26.834Z,102334.84
2023-02-15T13:34:01.412Z,102338.69
2023-02-15T13:36:42.562Z,102332.69
2023-02-15T13:39:17.985Z,102318.81
2023-02-15T13:41:54.375Z,102315.81
2023-02-15T13:44:58.640Z,102312.78
2023-02-15T13:47:40.600Z,102308.22
2023-02-15T13:50:28.494Z,102301.97
2023-02-15T13:53:18.884Z,102300.53
2023-02-15T13:55:48.954Z,102293.81
2023-02-15T13:58:26.664Z,102298.00
2023-02-15T14:01:18.213Z,102297.25
2023-02-15T14:04:08.977Z,102297.09
2023-02-15T14:06:48.980Z,102303.53
2023-02-15T14:09:19.659Z,102295.53
2023-02-15T14:11:58.481Z,102301.81
2023-02-15T14:14:36.854Z,102290.66
2023-02-15T14:17:27.642Z,102287.94
2023-02-15T14:19:59.331Z,102284.72
2023-02-15T14:22:43.228Z,102285.47
2023-02-15T14:25:19.330Z,102289.91
2023-02-15T14:28:07.332Z,102282.22
2023-02-15T14:30:38.040Z,102278.72
2023-02-15T14:33:41.134Z,102281.88
2023-02-15T14:36:09.831Z,102287.28
2023-02-15T14:38:57.761Z,102283.44
2023-02-15T14:41:51.356Z,102288.16
2023-02-15T14:44:31.159Z,102285.06
2023-02-15T14:47:32.357Z,102277.06
2023-02-15T14:49:59.155Z,102277.59
2023-02-15T14:52:26.014Z,102286.00
2023-02-15T14:54:57.521Z,102283.78
2023-02-15T14:57:25.975Z,102293.38
2023-02-15T15:00:02.274Z,102283.03
2023-02-15T15:02:41.315Z,102279.44
2023-02-15T15:05:09.654Z,102282.97
2023-02-15T15:07:46.739Z,102275.81
2023-02-15T15:10:21.038Z,102283.91
2023-02-15T15:12:49.071Z,102282.41
2023-02-15T15:15:36.020Z,102281.69
2023-02-15T15:18:07.856Z,102271.78
2023-02-15T15:20:51.329Z,102267.97
2023-02-15T15:23:27.568Z,102271.00
2023-02-15T15:25:59.230Z,102257.34
2023-02-15T15:28:35.110Z,102245.56
2023-02-15T15:31:02.026Z,102239.06
2023-02-15T15:33:50.768Z,102234.47
2023-02-15T15:36:31.031Z,102228.50
2023-02-15T15:39:36.679Z,102222.41
2023-02-15T15:42:18.688Z,102222.06
2023-02-15T15:45:24.444Z,102217.50
2023-02-15T15:48:07.055Z,102217.56
2023-02-15T15:50:34.912Z,102218.72
2023-02-15T15:53:02.654Z,102214.22
2023-02-15T15:55:32.520Z,102213.06
2023-02-15T15:58:08.010Z,102214.25
2023-02-15T16:00:43.804Z,102205.06
2023-02-15T16:03:23.187Z,102209.69
2023-02-15T16:05:55.330Z,102211.94
2023-02-15T16:08:38.544Z,102208.16
2023-02-15T16:11:15.711Z,102201.25
2023-02-15T16:13:43.318Z,102198.19
2023-02-15T16:16:10.562Z,102195.13
2023-02-15T16:18:39.993Z,102193.91
2023-02-15T16:21:06.506Z,102195.09
2023-02-15T16:23:51.495Z,102198.91
2023-02-15T16:26:30.398Z,102198.13
2023-02-15T16:28:56.838Z,102188.19
2023-02-15T16:31:24.058Z,102188.59
2023-02-15T16:33:53.738Z,102182.06
2023-02-15T16:36:28.804Z,102188.88
2023-02-15T16:38:58.222Z,102180.84
2023-02-15T16:41:28.236Z,102175.81
2023-02-15T16:43:57.513Z,102196.00
2023-02-15T16:46:26.899Z,102203.56
2023-02-15T16:48:56.532Z,102199.31
2023-02-15T16:51:27.592Z,102205.38
2023-02-15T16:53:56.192Z,102206.44
2023-02-15T16:56:31.350Z,102201.78
2023-02-15T16:58:58.917Z,102203.25
2023-02-15T17:01:29.079Z,102208.13
2023-02-15T17:04:14.502Z,102194.31
2023-02-15T17:06:40.971Z,102196.59
2023-02-15T17:09:15.611Z,102203.44
2023-02-15T17:11:44.000Z,102204.47
2023-02-15T17:14:10.863Z,102209.03
2023-02-15T17:16:42.439Z,102205.72
2023-02-15T17:19:18.292Z,102216.94
2023-02-15T17:21:57.031Z,102203.19
2023-02-15T17:24:32.990Z,102202.31
2023-02-15T17:27:03.705Z,102210.97
2023-02-15T17:29:33.580Z,102201.66
2023-02-15T17:32:00.595Z,102187.06
2023-02-15T17:35:04.233Z,102174.81
2023-02-15T17:37:36.837Z,102179.63
2023-02-15T17:40:26.841Z,102174.88
2023-02-15T17:42:57.472Z,102177.47
2023-02-15T17:45:27.284Z,102182.69
2023-02-15T17:47:53.931Z,102183.22
2023-02-15T17:50:23.240Z,102183.53
2023-02-15T17:52:50.522Z,102179.69
2023-02-15T17:55:37.611Z,102167.19
2023-02-15T17:58:06.716Z,102170.53
2023-02-15T18:00:53.870Z,102175.84
2023-02-15T18:03:39.114Z,102174.28
2023-02-15T18:06:24.417Z,102172.72
2023-02-15T18:09:11.584Z,102181.81
2023-02-15T18:11:39.128Z,102182.16
2023-02-15T18:14:10.070Z,102178.28
2023-02-15T18:16:40.788Z,102184.94
2023-02-15T18:19:10.667Z,102162.47
2023-02-15T18:21:37.083Z,102171.50
2023-02-15T18:24:03.638Z,102166.72
2023-02-15T18:26:30.096Z,102155.94
2023-02-15T18:28:56.486Z,102151.41
2023-02-15T18:31:24.053Z,102148.25
2023-02-15T18:33:54.284Z,102150.53
2023-02-15T18:36:25.734Z,102145.16
2023-02-15T18:38:53.473Z,102153.41
2023-02-15T18:41:21.142Z,102154.91
2023-02-15T18:43:48.938Z,102154.88
2023-02-15T18:46:17.025Z,102154.09
2023-02-15T18:48:44.041Z,102170.50
2023-02-15T18:51:18.988Z,102174.75
2023-02-15T18:53:46.598Z,102164.81
2023-02-15T18:56:18.476Z,102168.25
2023-02-15T18:58:49.252Z,102167.81
2023-02-15T19:01:18.483Z,102174.94
2023-02-15T19:03:49.435Z,102177.94
2023-02-15T19:06:18.608Z,102177.06
2023-02-15T19:08:47.090Z,102178.47
2023-02-15T19:11:19.445Z,102188.22
2023-02-15T19:13:48.752Z,102181.31
2023-02-15T19:16:30.645Z,102178.91
2023-02-15T19:18:57.557Z,102179.22
2023-02-15T19:21:24.697Z,102175.63
2023-02-15T19:23:56.908Z,102183.25
2023-02-15T19:26:28.691Z,102180.03
2023-02-15T19:29:00.914Z,102178.50
2023-02-15T19:31:27.738Z,102167.63
2023-02-15T19:33:54.331Z,102176.44
2023-02-15T19:36:22.846Z,102172.47
2023-02-15T19:38:51.502Z,102171.50
2023-02-15T19:41:23.776Z,102168.28
2023-02-15T19:43:55.117Z,102172.94
2023-02-15T19:46:23.202Z,102172.00
2023-02-15T19:48:53.695Z,102169.78
2023-02-15T19:51:21.835Z,102169.34
2023-02-15T19:53:49.199Z,102162.94
2023-02-15T19:56:23.428Z,102162.94
2023-02-15T19:58:52.042Z,102173.31
2023-02-15T20:01:19.427Z,102168.75
2023-02-15T20:03:45.845Z,102166.31
2023-02-15T20:06:15.634Z,102166.19
2023-02-15T20:08:42.574Z,102159.91
2023-02-15T20:11:13.284Z,102155.38
2023-02-15T20:13:40.522Z,102151.53
2023-02-15T20:16:08.349Z,102136.91
2023-02-15T20:18:35.179Z,102140.53
2023-02-15T20:21:02.780Z,102141.59
2023-02-15T20:23:32.378Z,102152.06
2023-02-15T20:26:00.460Z,102146.66
2023-02-15T20:28:29.510Z,102138.41
2023-02-15T20:30:56.078Z,102136.97
2023-02-15T20:33:23.100Z,102146.97
2023-02-15T20:35:50.521Z,102145.41
2023-02-15T20:38:25.461Z,102144.75
2023-02-15T20:41:10.547Z,102148.63
2023-02-15T20:43:37.139Z,102149.22
2023-02-15T20:46:04.175Z,102148.75
2023-02-15T20:48:30.941Z,102147.44
2023-02-15T20:51:00.340Z,102146.91
2023-02-15T20:53:28.307Z,102151.06
2023-02-15T20:55:55.177Z,102157.47
2023-02-15T20:58:29.608Z,102150.31
2023-02-15T21:00:58.056Z,102149.19
2023-02-15T21:03:31.114Z,102157.75
2023-02-15T21:05:58.389Z,102151.66
2023-02-15T21:08:25.092Z,102156.03
2023-02-15T21:10:52.728Z,102148.06
2023-02-15T21:13:27.968Z,102157.28
2023-02-15T21:15:55.343Z,102153.78
2023-02-15T21:18:24.260Z,102151.97
2023-02-15T21:20:53.084Z,102149.56
2023-02-15T21:23:29.391Z,102147.34
2023-02-15T21:25:56.548Z,102147.97
2023-02-15T21:28:25.295Z,102145.94
2023-02-15T21:30:52.609Z,102140.63
2023-02-15T21:33:19.370Z,102146.81
2023-02-15T21:35:48.858Z,102144.16
2023-02-15T21:38:17.272Z,102141.56
2023-02-15T21:40:44.217Z,102150.31
2023-02-15T21:43:33.666Z,102150.31
2023-02-15T21:46:23.747Z,102160.84
2023-02-15T21:48:50.181Z,102148.59
2023-02-15T21:51:35.315Z,102148.59
2023-02-15T21:54:01.746Z,102144.69
2023-02-15T21:56:28.325Z,102137.88
2023-02-15T21:58:54.866Z,102137.16
2023-02-15T22:01:24.470Z,102127.38
2023-02-15T22:03:51.121Z,102128.94
2023-02-15T22:06:18.501Z,102136.47
2023-02-15T22:08:45.292Z,102128.53
2023-02-15T22:11:13.790Z,102127.44
2023-02-15T22:13:41.090Z,102126.00
2023-02-15T22:16:07.498Z,102123.34
2023-02-15T22:18:34.404Z,102114.47
2023-02-15T22:21:01.535Z,102130.75
2023-02-15T22:23:28.194Z,102120.25
2023-02-15T22:26:19.940Z,102117.41
2023-02-15T22:28:46.364Z,102120.63
2023-02-15T22:31:15.230Z,102128.25
2023-02-15T22:33:41.959Z,102118.28
2023-02-15T22:36:35.030Z,102122.81
2023-02-15T22:39:01.552Z,102120.69
2023-02-15T22:41:30.537Z,102121.53
2023-02-15T22:43:57.162Z,102113.22
2023-02-15T22:46:24.809Z,102113.78
2023-02-15T22:48:52.154Z,102106.06
2023-02-15T22:51:21.093Z,102108.69
2023-02-15T22:53:49.697Z,102114.84
2023-02-15T22:56:20.641Z,102109.25
2023-02-15T22:58:49.513Z,102115.44
2023-02-15T23:01:26.842Z,102108.06
2023-02-15T23:03:53.321Z,102102.50
2023-02-15T23:06:19.800Z,102110.59
2023-02-15T23:08:46.349Z,102106.16
2023-02-15T23:11:12.849Z,102106.06
2023-02-15T23:13:39.478Z,102103.22
2023-02-15T23:16:07.258Z,102094.25
2023-02-15T23:18:41.440Z,102109.13
2023-02-15T23:21:25.908Z,102100.84
2023-02-15T23:23:54.986Z,102104.84
2023-02-15T23:26:27.774Z,102102.88
2023-02-15T23:28:55.944Z,102103.72
2023-02-15T23:31:31.709Z,102109.28
2023-02-15T23:33:59.914Z,102114.94
2023-02-15T23:36:29.811Z,102119.47
2023-02-15T23:38:58.573Z,102109.31
2023-02-15T23:41:28.106Z,102113.06
2023-02-15T23:44:03.420Z,102121.41
2023-02-15T23:46:34.837Z,102121.41
2023-02-15T23:49:01.249Z,102126.56
2023-02-15T23:51:30.609Z,102113.41
2023-02-15T23:53:57.743Z,102117.59
2023-02-15T23:56:24.148Z,102108.13
2023-02-15T23:58:50.812Z,102118.72
